Time;durP1;ratioP1;P1;durP2;ratioP2;P2;SDS_P1;SDS_P2;PMS_P1;PMS_P2;Temp;Humidity;BMP_temperature;BMP_pressure;BME280_temperature;BME280_humidity;BME280_pressure;Samples;Min_cycle;Max_cycle;Signal;HPM_P1;HPM_P2
2022/07/30 00:00:08;;;;;;;8.95;5.47;;;19.40;99.90;;;;;;5079112;28;20028;-60
2022/07/30 00:02:34;;;;;;;6.93;4.68;;;19.40;99.90;;;;;;5078223;28;20032;-60
2022/07/30 00:05:00;;;;;;;10.70;5.22;;;19.40;99.90;;;;;;5078956;28;20385;-60
2022/07/30 00:07:26;;;;;;;9.18;5.45;;;19.40;99.90;;;;;;5079582;28;20060;-60
2022/07/30 00:09:52;;;;;;;8.93;5.28;;;19.30;99.90;;;;;;5079164;28;20109;-60
2022/07/30 00:12:18;;;;;;;7.88;5.10;;;19.30;99.90;;;;;;5078798;28;20111;-60
2022/07/30 00:14:43;;;;;;;9.00;4.90;;;19.20;99.90;;;;;;5078758;28;20040;-60
2022/07/30 00:17:09;;;;;;;9.70;5.22;;;19.20;99.90;;;;;;5078752;28;20040;-60
2022/07/30 00:19:35;;;;;;;11.23;5.20;;;19.20;99.90;;;;;;5077980;28;20071;-60
2022/07/30 00:22:01;;;;;;;9.40;5.15;;;19.10;99.90;;;;;;5078735;28;20056;-60
2022/07/30 00:24:27;;;;;;;11.45;5.10;;;19.10;99.90;;;;;;5077865;28;20053;-61
2022/07/30 00:26:52;;;;;;;17.30;5.88;;;19.10;99.90;;;;;;5078608;28;20191;-62
2022/07/30 00:29:18;;;;;;;8.30;5.45;;;19.10;99.90;;;;;;5077764;28;20036;-60
2022/07/30 00:31:44;;;;;;;13.75;5.75;;;19.10;99.90;;;;;;5077809;28;20351;-60
2022/07/30 00:34:11;;;;;;;7.38;4.85;;;19.10;99.90;;;;;;5078264;28;20020;-60
2022/07/30 00:36:38;;;;;;;12.05;5.20;;;19.10;99.90;;;;;;5078307;28;20032;-60
2022/07/30 00:39:04;;;;;;;6.90;4.50;;;19.00;99.90;;;;;;5077488;28;20037;-60
2022/07/30 00:41:30;;;;;;;7.97;4.65;;;18.90;99.90;;;;;;5077627;28;20405;-60
2022/07/30 00:43:56;;;;;;;9.48;4.85;;;18.90;99.90;;;;;;5078174;28;20032;-61
2022/07/30 00:46:22;;;;;;;9.82;4.60;;;18.90;99.90;;;;;;5077940;28;20028;-60
2022/07/30 00:48:48;;;;;;;8.23;4.53;;;18.90;99.90;;;;;;5077187;28;20116;-60
2022/07/30 00:51:14;;;;;;;6.82;4.63;;;18.90;99.90;;;;;;5077289;28;20144;-60
2022/07/30 00:53:40;;;;;;;8.77;4.55;;;18.90;99.90;;;;;;5078065;28;20400;-63
2022/07/30 00:56:06;;;;;;;9.50;4.30;;;18.80;99.90;;;;;;5077947;28;20081;-60
2022/07/30 00:58:32;;;;;;;12.15;4.63;;;18.80;99.90;;;;;;5077681;28;20045;-59
2022/07/30 01:00:58;;;;;;;9.50;4.30;;;18.70;99.90;;;;;;5078048;28;20031;-60
2022/07/30 01:03:23;;;;;;;9.80;4.55;;;18.80;99.90;;;;;;5078319;28;20121;-60
2022/07/30 01:05:50;;;;;;;8.30;4.30;;;18.70;99.90;;;;;;5078029;28;20035;-60
2022/07/30 01:08:16;;;;;;;15.70;4.55;;;18.70;99.90;;;;;;5076989;28;20304;-60
2022/07/30 01:10:43;;;;;;;7.45;4.68;;;18.60;99.90;;;;;;5077964;28;20040;-60
2022/07/30 01:13:09;;;;;;;6.85;3.83;;;18.70;99.90;;;;;;5077689;28;20043;-60
2022/07/30 01:15:35;;;;;;;9.95;4.40;;;18.70;99.90;;;;;;5076812;28;20451;-60
2022/07/30 01:18:05;;;;;;;6.95;4.00;;;18.70;99.90;;;;;;5077560;28;20111;-60
2022/07/30 01:20:43;;;;;;;8.13;4.13;;;18.70;99.90;;;;;;5076905;28;20044;-60
2022/07/30 01:23:44;;;;;;;7.20;4.28;;;18.60;99.90;;;;;;5076736;28;20020;-60
2022/07/30 01:26:13;;;;;;;8.40;4.28;;;18.60;99.90;;;;;;5076917;28;20047;-60
2022/07/30 01:28:51;;;;;;;7.20;3.50;;;18.50;99.90;;;;;;5076585;28;20048;-61
2022/07/30 01:31:18;;;;;;;7.72;3.60;;;18.50;99.90;;;;;;5076491;28;20024;-61
2022/07/30 01:33:47;;;;;;;11.75;4.03;;;18.50;99.90;;;;;;5076988;28;20410;-61
2022/07/30 01:36:15;;;;;;;10.95;3.83;;;18.40;99.90;;;;;;5077276;28;20396;-61
2022/07/30 01:38:45;;;;;;;9.50;3.75;;;18.40;99.90;;;;;;5076349;28;20071;-61
2022/07/30 01:41:13;;;;;;;9.30;4.00;;;18.40;99.90;;;;;;5077461;28;20029;-61
2022/07/30 01:43:41;;;;;;;9.02;4.20;;;18.40;99.90;;;;;;5076052;28;20029;-61
2022/07/30 01:46:08;;;;;;;7.70;4.50;;;18.40;99.90;;;;;;5076743;28;20460;-60
2022/07/30 01:48:39;;;;;;;8.77;4.80;;;18.40;99.90;;;;;;5076339;28;20131;-61
2022/07/30 01:51:06;;;;;;;13.20;5.15;;;18.30;99.90;;;;;;5077302;28;20020;-61
2022/07/30 01:53:36;;;;;;;9.85;6.30;;;18.20;99.90;;;;;;5076275;28;20051;-58
2022/07/30 01:56:04;;;;;;;12.55;7.05;;;18.20;99.90;;;;;;5076177;28;20408;-59
2022/07/30 01:58:34;;;;;;;11.77;6.28;;;18.10;99.90;;;;;;5076078;28;20084;-59
2022/07/30 02:01:09;;;;;;;9.70;6.55;;;18.10;99.90;;;;;;5076329;28;20040;-59
2022/07/30 02:03:35;;;;;;;10.75;6.97;;;18.10;99.90;;;;;;5076949;28;20403;-59
2022/07/30 02:06:06;;;;;;;10.50;6.22;;;18.00;99.90;;;;;;5076353;28;20407;-59
2022/07/30 02:08:50;;;;;;;9.80;6.83;;;18.00;99.90;;;;;;5076945;28;20108;-59
2022/07/30 02:12:27;;;;;;;10.75;6.25;;;17.90;99.90;;;;;;5076051;28;20028;-59
2022/07/30 02:14:16;;;;;;;9.07;7.05;;;17.90;99.90;;;;;;5076711;28;20042;-61
2022/07/30 02:16:45;;;;;;;13.35;7.85;;;17.80;99.90;;;;;;5076029;28;20032;-61
2022/07/30 02:19:15;;;;;;;13.50;8.05;;;17.80;99.90;;;;;;5075988;28;20193;-60
2022/07/30 02:22:07;;;;;;;12.23;8.52;;;17.80;99.90;;;;;;5059227;28;20465;-60
2022/07/30 02:24:35;;;;;;;15.32;8.80;;;17.90;99.90;;;;;;5076001;28;20410;-60
2022/07/30 02:27:06;;;;;;;12.60;9.30;;;17.90;99.90;;;;;;5076705;28;20028;-60
2022/07/30 02:29:35;;;;;;;13.43;10.18;;;17.90;99.90;;;;;;5075957;28;20032;-60
2022/07/30 02:32:05;;;;;;;15.80;10.68;;;17.80;99.90;;;;;;5075903;28;20017;-60
2022/07/30 02:34:35;;;;;;;12.57;10.80;;;17.80;99.90;;;;;;5075774;28;20411;-60
2022/07/30 02:37:02;;;;;;;16.42;11.57;;;17.80;99.90;;;;;;5075795;28;20107;-62
2022/07/30 02:39:29;;;;;;;15.25;11.63;;;17.70;99.90;;;;;;5075861;28;20048;-60
2022/07/30 02:41:56;;;;;;;19.45;13.40;;;17.60;99.90;;;;;;5075814;28;20358;-60
2022/07/30 02:44:25;;;;;;;19.05;12.55;;;17.40;99.90;;;;;;5075820;28;20297;-60
2022/07/30 02:46:53;;;;;;;18.55;12.93;;;17.40;99.90;;;;;;5075786;28;20024;-61
2022/07/30 02:49:29;;;;;;;19.70;14.13;;;17.30;99.90;;;;;;5076998;28;20032;-60
2022/07/30 02:51:57;;;;;;;17.00;13.43;;;17.40;99.90;;;;;;5059066;28;20021;-60
2022/07/30 02:54:26;;;;;;;21.98;15.77;;;17.30;99.90;;;;;;5076459;28;20332;-61
2022/07/30 02:56:54;;;;;;;16.33;14.40;;;17.40;99.90;;;;;;5078332;28;20040;-60
2022/07/30 02:59:22;;;;;;;24.35;16.77;;;17.40;99.90;;;;;;5079498;28;20058;-60
2022/07/30 03:01:48;;;;;;;22.25;16.52;;;17.40;99.90;;;;;;5079403;28;20033;-60
2022/07/30 03:04:19;;;;;;;23.20;17.67;;;17.40;99.90;;;;;;5079758;28;20020;-60
2022/07/30 03:06:48;;;;;;;24.30;16.92;;;17.40;99.90;;;;;;5062868;28;20021;-60
2022/07/30 03:09:16;;;;;;;21.63;16.88;;;17.40;99.90;;;;;;5080064;28;20354;-60
2022/07/30 03:11:42;;;;;;;20.85;15.82;;;17.30;99.90;;;;;;5079285;28;20086;-60
2022/07/30 03:14:10;;;;;;;20.27;15.88;;;17.30;99.90;;;;;;5062533;28;20041;-60
2022/07/30 03:16:37;;;;;;;19.08;15.63;;;17.30;99.90;;;;;;5062509;28;20399;-60
2022/07/30 03:19:08;;;;;;;21.45;16.75;;;17.30;99.90;;;;;;5079802;28;20384;-60
2022/07/30 03:21:36;;;;;;;22.95;15.85;;;17.30;99.90;;;;;;5079059;28;20029;-60
2022/07/30 03:24:05;;;;;;;19.65;14.93;;;17.20;99.90;;;;;;5079765;28;20024;-60
2022/07/30 03:26:33;;;;;;;19.08;16.02;;;17.10;99.90;;;;;;5078944;28;20028;-60
2022/07/30 03:29:01;;;;;;;21.85;16.58;;;17.10;99.90;;;;;;5078901;28;20032;-61
2022/07/30 03:31:29;;;;;;;25.42;16.98;;;17.20;99.90;;;;;;5079651;28;20403;-60
2022/07/30 03:33:55;;;;;;;27.02;17.52;;;17.10;99.90;;;;;;5078838;28;20044;-61
2022/07/30 03:36:21;;;;;;;19.33;16.17;;;17.20;99.90;;;;;;5078698;28;20404;-60
2022/07/30 03:38:48;;;;;;;20.80;17.20;;;17.20;99.90;;;;;;5078678;28;20033;-60
2022/07/30 03:41:15;;;;;;;28.25;18.23;;;17.20;99.90;;;;;;5062036;28;20085;-60
2022/07/30 03:43:44;;;;;;;26.73;18.77;;;17.20;99.90;;;;;;5078627;28;20036;-60
2022/07/30 03:46:12;;;;;;;26.73;18.00;;;17.20;99.90;;;;;;5078612;28;20094;-60
2022/07/30 03:48:42;;;;;;;25.20;17.23;;;17.20;99.90;;;;;;5078885;28;20127;-60
2022/07/30 03:51:09;;;;;;;21.33;17.05;;;17.20;99.90;;;;;;5078555;28;20039;-60
2022/07/30 03:53:40;;;;;;;21.63;18.58;;;17.20;99.90;;;;;;5078443;28;20035;-60
2022/07/30 03:56:24;;;;;;;20.55;16.30;;;17.20;99.90;;;;;;5079101;28;20457;-60
2022/07/30 03:59:14;;;;;;;24.42;17.55;;;17.20;99.90;;;;;;5078748;28;20048;-60
2022/07/30 04:01:40;;;;;;;20.50;17.95;;;17.30;99.90;;;;;;5078305;28;20020;-60
2022/07/30 04:04:14;;;;;;;21.73;16.58;;;17.30;99.90;;;;;;5062787;28;20375;-60
2022/07/30 04:06:41;;;;;;;24.17;16.88;;;17.30;99.90;;;;;;5077909;28;20133;-59
2022/07/30 04:09:11;;;;;;;21.98;16.67;;;17.30;99.90;;;;;;5061669;28;20035;-60
2022/07/30 04:11:38;;;;;;;18.67;15.30;;;17.40;99.90;;;;;;5078104;28;20035;-60
2022/07/30 04:14:05;;;;;;;18.45;15.55;;;17.30;99.90;;;;;;5078186;28;20025;-60
2022/07/30 04:16:55;;;;;;;23.80;15.73;;;17.20;99.90;;;;;;5061447;28;20047;-60
2022/07/30 04:19:35;;;;;;;20.33;15.73;;;17.30;99.90;;;;;;5078035;28;20036;-60
2022/07/30 04:22:03;;;;;;;18.83;14.32;;;17.40;99.90;;;;;;5077819;28;20024;-61
2022/07/30 04:24:32;;;;;;;17.20;13.93;;;17.40;99.90;;;;;;5044873;28;20328;-60
2022/07/30 04:27:00;;;;;;;19.10;14.73;;;17.40;99.90;;;;;;5077842;28;20033;-60
2022/07/30 04:29:26;;;;;;;20.52;14.32;;;17.30;99.90;;;;;;5077673;28;20040;-60
2022/07/30 04:31:54;;;;;;;20.75;14.65;;;17.40;99.90;;;;;;5077733;28;20400;-60
2022/07/30 04:34:32;;;;;;;19.95;13.27;;;17.30;99.90;;;;;;5078950;28;20408;-60
2022/07/30 04:36:58;;;;;;;18.15;13.02;;;17.40;99.90;;;;;;5077446;28;20093;-60
2022/07/30 04:39:24;;;;;;;16.10;12.68;;;17.40;99.90;;;;;;5077504;28;20036;-60
2022/07/30 04:41:50;;;;;;;20.85;12.05;;;17.40;99.90;;;;;;5078111;28;20377;-60
2022/07/30 04:44:26;;;;;;;15.48;11.27;;;17.50;99.90;;;;;;5077665;28;20029;-60
2022/07/30 04:47:11;;;;;;;12.90;11.52;;;17.50;99.90;;;;;;5063848;28;20091;-60
2022/07/30 04:49:49;;;;;;;13.85;11.32;;;17.60;99.90;;;;;;5077429;28;20038;-60
2022/07/30 04:52:17;;;;;;;13.88;10.90;;;17.60;99.90;;;;;;5077313;28;20321;-59
2022/07/30 04:55:01;;;;;;;12.48;10.32;;;17.60;99.90;;;;;;5077245;28;20111;-60
2022/07/30 04:57:27;;;;;;;;;;;17.60;99.90;;;;;;5078195;28;20102;-60
2022/07/30 04:59:53;;;;;;;14.15;10.60;;;17.60;99.90;;;;;;5060488;28;20238;-59
2022/07/30 05:02:20;;;;;;;13.70;10.65;;;17.70;99.90;;;;;;5077050;28;20119;-59
2022/07/30 05:04:48;;;;;;;14.75;10.65;;;17.70;99.90;;;;;;5060320;28;20415;-60
2022/07/30 05:07:16;;;;;;;12.95;9.40;;;17.80;99.90;;;;;;5060380;28;20028;-60
2022/07/30 05:09:43;;;;;;;12.02;10.27;;;17.90;99.90;;;;;;5076933;28;20063;-61
2022/07/30 05:12:09;;;;;;;11.80;9.60;;;17.90;99.90;;;;;;5060299;28;20025;-60
2022/07/30 05:14:35;;;;;;;15.27;9.60;;;18.00;99.90;;;;;;5078245;28;20035;-61
2022/07/30 05:17:01;;;;;;;11.13;9.85;;;17.90;99.90;;;;;;5077617;28;20025;-60
2022/07/30 05:19:27;;;;;;;12.32;9.38;;;18.00;99.90;;;;;;5076817;28;20431;-60
2022/07/30 05:21:53;;;;;;;11.15;9.05;;;18.00;99.90;;;;;;5077535;28;20028;-61
2022/07/30 05:24:19;;;;;;;12.77;9.45;;;18.10;99.90;;;;;;5076665;28;20029;-61
2022/07/30 05:26:53;;;;;;;14.35;9.38;;;18.20;99.90;;;;;;5061157;28;20140;-61
2022/07/30 05:29:20;;;;;;;13.27;8.82;;;18.40;99.90;;;;;;5060137;28;20118;-61
2022/07/30 05:31:51;;;;;;;13.35;9.10;;;18.50;99.90;;;;;;5076694;28;20397;-61
2022/07/30 05:34:17;;;;;;;11.13;8.25;;;18.60;99.90;;;;;;5076649;28;20047;-61
2022/07/30 05:36:44;;;;;;;14.52;8.70;;;18.60;99.90;;;;;;5060036;28;20029;-61
2022/07/30 05:39:12;;;;;;;11.20;7.57;;;18.50;99.90;;;;;;5060011;28;20308;-60
2022/07/30 05:41:58;;;;;;;11.48;7.50;;;18.50;99.90;;;;;;5076681;28;20351;-61
2022/07/30 05:44:26;;;;;;;11.32;7.80;;;18.70;99.90;;;;;;5076384;28;20028;-60
2022/07/30 05:46:53;;;;;;;9.40;7.43;;;18.80;99.90;;;;;;5076305;28;20131;-59
2022/07/30 05:49:19;;;;;;;10.98;7.53;;;18.90;99.90;;;;;;5077007;28;20365;-60
2022/07/30 05:51:46;;;;;;;8.93;6.40;;;19.00;99.90;;;;;;5076314;28;20024;-61
2022/07/30 05:54:12;;;;;;;11.23;6.72;;;19.20;99.90;;;;;;5043118;28;20035;-61
2022/07/30 05:56:56;;;;;;;11.48;7.25;;;19.30;99.90;;;;;;5062343;28;20063;-60
2022/07/30 05:59:31;;;;;;;10.90;7.53;;;19.20;99.90;;;;;;5076285;28;20036;-61
2022/07/30 06:02:05;;;;;;;11.48;7.30;;;19.30;99.90;;;;;;5076211;28;20032;-60
2022/07/30 06:05:07;;;;;;;7.93;6.57;;;19.40;99.90;;;;;;5075390;28;20423;-59
2022/07/30 06:07:33;;;;;;;9.18;6.20;;;19.50;99.90;;;;;;5076136;28;20055;-60
2022/07/30 06:10:00;;;;;;;8.68;6.10;;;19.50;99.90;;;;;;5043143;28;20408;-60
2022/07/30 06:12:28;;;;;;;9.75;6.30;;;19.30;99.90;;;;;;5076023;28;20025;-60
2022/07/30 06:14:54;;;;;;;7.68;5.43;;;19.30;99.90;;;;;;5075981;28;20113;-60
2022/07/30 06:17:25;;;;;;;8.53;6.20;;;19.30;99.90;;;;;;5076012;28;20029;-61
2022/07/30 06:20:16;;;;;;;11.95;6.55;;;19.40;99.90;;;;;;5076001;28;20037;-60
2022/07/30 06:23:11;;;;;;;8.88;6.63;;;19.50;99.90;;;;;;5076145;28;20311;-60
2022/07/30 06:25:52;;;;;;;10.77;6.05;;;19.60;99.90;;;;;;5076125;28;20096;-60
2022/07/30 06:28:19;;;;;;;7.70;5.68;;;19.60;99.90;;;;;;5076673;28;20037;-60
2022/07/30 06:30:46;;;;;;;8.35;5.93;;;19.60;99.90;;;;;;5077049;28;20098;-60
2022/07/30 06:33:12;;;;;;;8.38;4.90;;;19.70;99.90;;;;;;5079928;28;20089;-62
2022/07/30 06:35:38;;;;;;;11.88;5.88;;;19.70;99.90;;;;;;5063635;28;20408;-62
2022/07/30 06:38:05;;;;;;;7.72;5.72;;;19.80;99.90;;;;;;5063220;28;20032;-62
2022/07/30 06:40:32;;;;;;;11.27;6.85;;;19.90;99.90;;;;;;5063262;28;20063;-62
2022/07/30 06:43:20;;;;;;;8.88;7.60;;;19.90;99.90;;;;;;5079959;28;20032;-61
2022/07/30 06:45:56;;;;;;;8.88;6.68;;;19.80;99.90;;;;;;5064622;28;20067;-61
2022/07/30 06:48:24;;;;;;;9.50;6.50;;;19.90;99.90;;;;;;5079930;28;20453;-61
2022/07/30 06:50:51;;;;;;;11.60;7.22;;;20.20;99.90;;;;;;5079770;28;20063;-61
2022/07/30 06:53:17;;;;;;;8.80;6.93;;;20.10;99.90;;;;;;5080373;28;20070;-61
2022/07/30 06:56:01;;;;;;;11.30;6.45;;;19.90;99.90;;;;;;5066038;28;20048;-63
2022/07/30 06:58:35;;;;;;;8.95;6.38;;;20.10;99.90;;;;;;5079410;28;20040;-61
2022/07/30 07:01:33;;;;;;;10.38;6.72;;;20.40;99.90;;;;;;5090625;28;20044;-60
2022/07/30 07:03:59;;;;;;;7.85;5.25;;;20.70;99.90;;;;;;5079454;28;20033;-60
2022/07/30 07:06:25;;;;;;;7.93;5.10;;;21.00;99.90;;;;;;5079354;28;20029;-60
2022/07/30 07:08:51;;;;;;;9.43;5.63;;;21.30;99.90;;;;;;5046346;28;20439;-62
2022/07/30 07:11:24;;;;;;;8.27;5.88;;;21.50;99.90;;;;;;5079325;28;20055;-61
2022/07/30 07:13:53;;;;;;;9.85;6.13;;;21.50;99.90;;;;;;5079195;28;20474;-61
2022/07/30 07:16:29;;;;;;;10.40;6.07;;;21.20;99.90;;;;;;5064024;28;20111;-61
2022/07/30 07:18:56;;;;;;;9.65;6.18;;;21.20;99.90;;;;;;5078981;28;20029;-61
2022/07/30 07:21:22;;;;;;;9.38;6.82;;;21.10;99.90;;;;;;5062565;28;20120;-61
2022/07/30 07:23:50;;;;;;;10.70;6.82;;;21.20;99.90;;;;;;5062568;28;20060;-60
2022/07/30 07:26:42;;;;;;;8.48;7.03;;;20.90;99.90;;;;;;5079487;28;20115;-61
2022/07/30 07:29:09;;;;;;;10.07;6.55;;;20.80;99.90;;;;;;5078900;28;20036;-61
2022/07/30 07:31:34;;;;;;;8.80;6.75;;;20.70;99.90;;;;;;5062339;28;20040;-61
2022/07/30 07:34:00;;;;;;;7.65;6.07;;;20.60;99.90;;;;;;5062163;28;20032;-61
2022/07/30 07:36:27;;;;;;;8.48;5.47;;;20.80;99.90;;;;;;5079612;28;20025;-61
2022/07/30 07:38:53;;;;;;;6.78;4.85;;;20.90;99.90;;;;;;5078690;28;20312;-61
2022/07/30 07:41:19;;;;;;;9.32;6.07;;;21.00;99.90;;;;;;5078547;28;20384;-62
2022/07/30 07:43:45;;;;;;;7.80;5.45;;;20.60;99.90;;;;;;5061040;28;20036;-61
2022/07/30 07:46:17;;;;;;;6.13;4.55;;;20.40;99.90;;;;;;5078937;28;20035;-61
2022/07/30 07:48:43;;;;;;;9.63;4.95;;;20.50;99.90;;;;;;5078547;28;20400;-61
2022/07/30 07:51:35;;;;;;;10.05;5.57;;;20.50;99.90;;;;;;5079111;28;20036;-61
2022/07/30 07:54:02;;;;;;;8.48;5.45;;;20.20;99.90;;;;;;5045773;28;20032;-62
2022/07/30 07:56:28;;;;;;;7.47;5.10;;;20.30;99.90;;;;;;5079037;28;20473;-61
2022/07/30 07:58:56;;;;;;;10.88;5.03;;;20.50;99.90;;;;;;5061828;28;20036;-60
2022/07/30 08:01:22;;;;;;;7.78;3.60;;;20.80;99.90;;;;;;5061827;28;20032;-62
2022/07/30 08:04:11;;;;;;;7.25;4.40;;;21.00;99.90;;;;;;5078341;28;20397;-61
2022/07/30 08:06:55;;;;;;;7.47;5.07;;;21.10;99.90;;;;;;5079124;28;20052;-62
2022/07/30 08:09:40;;;;;;;6.50;3.83;;;21.30;99.90;;;;;;5064577;28;20043;-61
2022/07/30 08:12:12;;;;;;;5.93;4.00;;;21.20;99.90;;;;;;5062690;28;20036;-61
2022/07/30 08:15:06;;;;;;;7.85;3.53;;;21.40;99.90;;;;;;5070356;28;20355;-62
2022/07/30 08:17:50;;;;;;;6.07;3.05;;;21.60;99.90;;;;;;5078407;28;20087;-61
2022/07/30 08:20:39;;;;;;;5.28;3.00;;;21.70;99.90;;;;;;5078973;28;20334;-61
2022/07/30 08:23:07;;;;;;;6.00;3.00;;;21.90;99.90;;;;;;5061380;28;20114;-61
2022/07/30 08:25:33;;;;;;;5.97;3.55;;;21.90;99.90;;;;;;5077953;28;20120;-60
2022/07/30 08:28:01;;;;;;;6.72;3.17;;;22.00;99.90;;;;;;5078652;28;20036;-62
2022/07/30 08:30:29;;;;;;;6.43;2.80;;;21.90;99.90;;;;;;5061188;28;20311;-61
2022/07/30 08:32:56;;;;;;;7.22;3.15;;;21.80;99.90;;;;;;5061649;28;20024;-62
2022/07/30 08:35:22;;;;;;;5.78;3.40;;;21.80;99.90;;;;;;5061156;28;20400;-61
2022/07/30 08:37:48;;;;;;;3.72;2.58;;;21.50;99.90;;;;;;5077540;28;20116;-61
2022/07/30 08:40:18;;;;;;;4.60;3.20;;;21.70;99.90;;;;;;5077577;28;20032;-61
2022/07/30 08:42:52;;;;;;;4.38;2.58;;;21.60;99.90;;;;;;5077628;28;20036;-62
2022/07/30 08:45:19;;;;;;;4.75;2.60;;;21.80;99.90;;;;;;5078338;28;20123;-61
2022/07/30 08:47:46;;;;;;;4.38;3.05;;;22.00;99.90;;;;;;5077387;28;20505;-62
2022/07/30 08:50:23;;;;;;;5.43;3.20;;;22.20;99.90;;;;;;5077439;28;20119;-62
2022/07/30 08:53:18;;;;;;;6.35;3.40;;;22.70;99.90;;;;;;5077163;28;20043;-62
2022/07/30 08:55:44;;;;;;;7.22;2.63;;;23.10;99.90;;;;;;5077421;28;20040;-64
2022/07/30 08:58:25;;;;;;;4.35;2.72;;;23.30;99.90;;;;;;5060244;28;20068;-63
2022/07/30 09:00:52;;;;;;;7.35;3.33;;;23.20;99.90;;;;;;5078105;28;20044;-64
2022/07/30 09:03:19;;;;;;;6.70;2.90;;;22.70;99.90;;;;;;5077809;28;20028;-62
2022/07/30 09:05:45;;;;;;;4.65;2.83;;;22.20;99.90;;;;;;5060551;28;20404;-62
2022/07/30 09:08:11;;;;;;;4.65;3.10;;;22.00;99.90;;;;;;5060460;28;20028;-64
2022/07/30 09:10:37;;;;;;;5.10;2.90;;;22.30;99.90;;;;;;5076968;28;20051;-63
2022/07/30 09:13:03;;;;;;;10.25;3.90;;;22.80;99.90;;;;;;5076883;28;20319;-62
2022/07/30 09:15:28;;;;;;;4.75;2.78;;;23.10;99.90;;;;;;5060370;28;20466;-61
2022/07/30 09:18:00;;;;;;;5.03;2.75;;;23.40;99.90;;;;;;5060129;28;20367;-62
2022/07/30 09:20:29;;;;;;;4.75;2.83;;;23.80;99.90;;;;;;5076765;28;20017;-62
2022/07/30 09:22:59;;;;;;;5.97;2.30;;;24.00;99.90;;;;;;5076686;28;20046;-63
2022/07/30 09:25:45;;;;;;;4.25;2.25;;;24.30;99.90;;;;;;5078152;28;20043;-62
2022/07/30 09:28:31;;;;;;;4.43;2.20;;;24.60;99.90;;;;;;5077063;28;20427;-62
2022/07/30 09:31:13;;;;;;;3.08;2.35;;;24.90;99.90;;;;;;5077309;28;20051;-62
2022/07/30 09:33:58;;;;;;;3.78;2.47;;;24.90;99.90;;;;;;5077388;28;20046;-63
2022/07/30 09:36:42;;;;;;;4.88;2.55;;;24.80;99.90;;;;;;5077386;28;20052;-62
2022/07/30 09:39:39;;;;;;;5.38;2.70;;;25.20;99.90;;;;;;5077141;28;20047;-62
2022/07/30 09:42:21;;;;;;;3.95;2.20;;;25.50;99.90;;;;;;5076643;28;20048;-62
2022/07/30 09:44:47;;;;;;;5.05;2.15;;;25.70;99.90;;;;;;5076371;28;20096;-62
2022/07/30 09:47:34;;;;;;;5.22;2.10;;;25.80;99.90;;;;;;5077217;28;20454;-61
2022/07/30 09:50:10;;;;;;;3.83;1.95;;;25.80;99.90;;;;;;5077191;28;20435;-65
2022/07/30 09:52:38;;;;;;;6.75;2.67;;;25.70;99.90;;;;;;5076386;28;20024;-65
2022/07/30 09:55:05;;;;;;;6.15;1.98;;;26.00;99.90;;;;;;5076210;28;20021;-66
2022/07/30 09:57:32;;;;;;;3.38;1.58;;;26.40;99.90;;;;;;5076011;28;20056;-65
2022/07/30 10:00:19;;;;;;;;;;;26.50;99.90;;;;;;5076530;28;20032;-66
2022/07/30 10:02:58;;;;;;;24.65;3.35;;;26.70;99.90;;;;;;5076361;28;19920;-65
2022/07/30 10:05:55;;;;;;;4.30;1.80;;;27.10;99.90;;;;;;5076224;28;20040;-65
2022/07/30 10:08:41;;;;;;;4.45;1.70;;;27.30;99.90;;;;;;5059482;28;20381;-64
2022/07/30 10:11:12;;;;;;;3.30;1.63;;;27.30;99.90;;;;;;5076056;28;20308;-65
2022/07/30 10:13:38;;;;;;;5.15;1.85;;;27.60;99.90;;;;;;5075994;28;20040;-65
2022/07/30 10:16:06;;;;;;;6.65;2.47;;;27.30;99.90;;;;;;5059495;28;20142;-65
2022/07/30 10:18:33;;;;;;;6.82;2.13;;;27.20;99.90;;;;;;5075846;28;20123;-65
2022/07/30 10:21:31;;;;;;;4.03;1.65;;;27.30;99.90;;;;;;5071885;28;20044;-64
2022/07/30 10:24:10;;;;;;;5.18;1.88;;;27.20;99.90;;;;;;5061723;28;20047;-65
2022/07/30 10:27:02;;;;;;;5.65;2.15;;;27.10;99.90;;;;;;5075737;28;20041;-66
2022/07/30 10:29:48;;;;;;;6.80;1.95;;;27.60;99.90;;;;;;5076116;28;20047;-66
2022/07/30 10:32:14;;;;;;;3.42;2.30;;;28.30;99.90;;;;;;5075906;28;20127;-66
2022/07/30 10:34:40;;;;;;;4.35;1.73;;;28.60;99.90;;;;;;5075920;28;20111;-66
2022/07/30 10:37:06;;;;;;;3.47;1.80;;;28.90;99.90;;;;;;5077208;28;20079;-65
2022/07/30 10:39:46;;;;;;;6.55;2.72;;;28.70;99.90;;;;;;5076551;28;20041;-66
2022/07/30 10:42:36;;;;;;;5.88;2.33;;;28.90;99.90;;;;;;5076524;28;20024;-65
2022/07/30 10:45:21;;;;;;;5.03;2.20;;;29.10;99.90;;;;;;5076626;28;20040;-65
2022/07/30 10:47:50;;;;;;;6.57;2.50;;;29.30;99.90;;;;;;5075775;28;20036;-65
2022/07/30 10:50:25;;;;;;;5.18;2.30;;;29.70;99.90;;;;;;5075895;28;20029;-65
2022/07/30 10:52:59;;;;;;;3.40;2.10;;;29.90;99.90;;;;;;5076516;28;20044;-65
2022/07/30 10:55:27;;;;;;;6.10;2.03;;;29.90;99.90;;;;;;5075677;28;20044;-66
2022/07/30 10:58:11;;;;;;;4.47;2.08;;;30.00;99.90;;;;;;5075670;28;20347;-65
2022/07/30 11:00:52;;;;;;;3.88;2.20;;;30.10;99.90;;;;;;5076421;28;20025;-66
2022/07/30 11:03:24;;;;;;;3.95;1.55;;;30.30;99.90;;;;;;5076314;28;20071;-65
2022/07/30 11:05:51;;;;;;;4.03;2.22;;;30.60;99.90;;;;;;5077034;28;20094;-66
2022/07/30 11:08:32;;;;;;;5.15;1.70;;;30.70;98.60;;;;;;5076346;28;20037;-66
2022/07/30 11:10:59;;;;;;;2.80;1.58;;;30.80;97.90;;;;;;5075571;28;20028;-64
2022/07/30 11:13:54;;;;;;;2.65;1.75;;;29.90;98.70;;;;;;5058777;28;20043;-65
2022/07/30 11:16:23;;;;;;;4.07;1.77;;;28.80;99.90;;;;;;5075926;28;20033;-66
2022/07/30 11:19:16;;;;;;;3.42;1.60;;;27.50;99.90;;;;;;5062445;28;20082;-65
2022/07/30 11:21:49;;;;;;;3.92;1.65;;;27.70;99.90;;;;;;5078507;28;20083;-65
2022/07/30 11:24:42;;;;;;;3.53;1.40;;;28.20;99.90;;;;;;5079308;28;20048;-65
2022/07/30 11:27:08;;;;;;;5.90;1.65;;;28.40;99.90;;;;;;5079908;28;20343;-66
2022/07/30 11:29:39;;;;;;;4.78;1.48;;;28.80;99.90;;;;;;5079873;28;20096;-65
2022/07/30 11:32:32;;;;;;;4.25;1.60;;;27.30;99.90;;;;;;5078978;28;20116;-66
2022/07/30 11:35:18;;;;;;;;;;;27.80;99.90;;;;;;5079933;28;20024;-65
2022/07/30 11:38:19;;;;;;;6.13;1.92;;;28.20;99.90;;;;;;5078410;28;19978;-65
2022/07/30 11:40:48;;;;;;;5.32;1.70;;;26.80;99.90;;;;;;5079509;28;20040;-66
2022/07/30 11:43:16;;;;;;;4.43;1.40;;;27.20;99.90;;;;;;5078559;28;20024;-65
2022/07/30 11:45:44;;;;;;;11.95;2.00;;;27.40;99.90;;;;;;5079515;28;20040;-65
2022/07/30 11:48:12;;;;;;;13.43;2.00;;;28.70;99.90;;;;;;5078687;28;20119;-65
2022/07/30 11:50:39;;;;;;;3.47;1.60;;;29.60;99.90;;;;;;5079383;28;20036;-66
2022/07/30 11:53:18;;;;;;;1.52;1.05;;;29.80;99.90;;;;;;5078574;28;20039;-64
2022/07/30 11:56:04;;;;;;;2.50;1.58;;;29.70;99.90;;;;;;5079261;28;20079;-64
2022/07/30 11:58:36;;;;;;;4.82;1.83;;;29.30;99.90;;;;;;5078869;28;20071;-65
2022/07/30 12:01:13;;;;;;;2.90;1.85;;;28.40;99.90;;;;;;5079229;28;20392;-65
2022/07/30 12:03:40;;;;;;;3.83;1.73;;;28.20;99.90;;;;;;5079093;28;20035;-64
2022/07/30 12:06:08;;;;;;;4.03;1.60;;;29.20;99.90;;;;;;5079529;28;20025;-65
2022/07/30 12:08:45;;;;;;;4.82;1.65;;;30.00;99.90;;;;;;5079055;28;20166;-66
2022/07/30 12:11:11;;;;;;;4.70;2.00;;;31.10;97.20;;;;;;5079225;28;20102;-65
2022/07/30 12:13:39;;;;;;;3.05;1.40;;;33.10;95.40;;;;;;5078954;28;20016;-65
2022/07/30 12:16:09;;;;;;;2.55;1.42;;;33.70;91.60;;;;;;5078929;28;20032;-65
2022/07/30 12:18:36;;;;;;;3.53;1.55;;;33.20;91.70;;;;;;5078697;28;20449;-65
2022/07/30 12:21:04;;;;;;;3.30;1.25;;;34.30;89.30;;;;;;5079382;28;20093;-66
2022/07/30 12:23:30;;;;;;;4.93;1.40;;;35.70;84.70;;;;;;5078893;28;20077;-65
2022/07/30 12:25:57;;;;;;;4.50;1.70;;;37.20;75.00;;;;;;5078793;28;20029;-64
2022/07/30 12:28:28;;;;;;;4.60;1.80;;;37.70;70.40;;;;;;5077767;28;20043;-66
2022/07/30 12:30:56;;;;;;;2.45;1.00;;;38.90;66.20;;;;;;5078577;28;20376;-66
2022/07/30 12:33:23;;;;;;;3.25;1.38;;;39.30;61.20;;;;;;5077846;28;20032;-66
2022/07/30 12:35:52;;;;;;;2.50;1.10;;;39.40;57.80;;;;;;5078214;28;20397;-66
2022/07/30 12:38:20;;;;;;;2.47;1.10;;;39.60;57.20;;;;;;5078734;28;20396;-68
2022/07/30 12:41:00;;;;;;;3.58;1.20;;;39.90;55.40;;;;;;5078455;28;20037;-65
2022/07/30 12:44:01;;;;;;;1.77;1.08;;;39.70;54.70;;;;;;5078770;28;20039;-64
2022/07/30 12:46:27;;;;;;;2.13;1.20;;;40.00;53.30;;;;;;5078162;28;20309;-65
2022/07/30 12:48:53;;;;;;;9.40;1.65;;;39.00;53.70;;;;;;5078505;28;20046;-67
2022/07/30 12:51:21;;;;;;;4.22;1.00;;;38.10;54.90;;;;;;5078812;28;20021;-64
2022/07/30 12:53:47;;;;;;;5.63;1.33;;;37.80;53.40;;;;;;5078102;28;20464;-67
2022/07/30 12:56:18;;;;;;;5.50;1.10;;;38.40;53.70;;;;;;5078717;28;20119;-65
2022/07/30 12:58:44;;;;;;;10.30;1.48;;;37.50;55.20;;;;;;5078231;28;20051;-65
2022/07/30 13:01:11;;;;;;;7.82;1.70;;;37.20;55.00;;;;;;5060705;28;20060;-65
2022/07/30 13:03:40;;;;;;;3.50;1.10;;;36.60;56.40;;;;;;5077113;28;20040;-64